createdAt,value
2023-05-12T00:00:52.233Z,3.83
2023-05-12T00:03:22.217Z,3.70
2023-05-12T00:05:52.185Z,3.72
2023-05-12T00:08:21.968Z,4.03
2023-05-12T00:10:52.273Z,5.60
2023-05-12T00:13:23.828Z,5.57
2023-05-12T00:15:57.130Z,5.35
2023-05-12T00:18:28.583Z,4.63
2023-05-12T00:20:58.634Z,4.50
2023-05-12T00:23:28.309Z,4.00
2023-05-12T00:25:58.244Z,4.32
2023-05-12T00:28:27.989Z,4.13
2023-05-12T00:31:05.759Z,4.20
2023-05-12T00:33:35.475Z,4.13
2023-05-12T00:36:05.605Z,4.30
2023-05-12T00:38:37.516Z,4.20
2023-05-12T00:41:07.343Z,4.72
2023-05-12T00:43:37.155Z,4.35
2023-05-12T00:46:10.126Z,4.15
2023-05-12T00:48:40.351Z,3.60
2023-05-12T00:51:10.340Z,4.05
2023-05-12T00:53:49.036Z,6.40
2023-05-12T00:56:22.232Z,10.18
2023-05-12T00:58:51.926Z,9.88
2023-05-12T01:01:24.602Z,7.50
2023-05-12T01:03:54.741Z,6.85
2023-05-12T01:06:29.303Z,5.82
2023-05-12T01:08:59.851Z,5.70
2023-05-12T01:11:29.640Z,5.47
2023-05-12T01:13:59.635Z,5.00
2023-05-12T01:16:34.333Z,5.25
2023-05-12T01:19:08.629Z,4.57
2023-05-12T01:21:38.410Z,4.80
2023-05-12T01:24:10.520Z,4.45
2023-05-12T01:26:42.830Z,4.97
2023-05-12T01:29:13.195Z,5.32
2023-05-12T01:31:43.104Z,4.50
2023-05-12T01:34:18.686Z,4.93
2023-05-12T01:36:48.463Z,4.63
2023-05-12T01:39:18.351Z,4.72
2023-05-12T01:41:50.657Z,4.57
2023-05-12T01:44:21.096Z,4.63
2023-05-12T01:46:51.100Z,4.55
2023-05-12T01:49:21.234Z,5.18
2023-05-12T01:51:51.062Z,4.45
2023-05-12T01:54:21.446Z,4.40
2023-05-12T01:56:53.728Z,4.70
2023-05-12T01:59:23.546Z,4.15
2023-05-12T02:01:53.279Z,5.13
2023-05-12T02:04:23.366Z,4.53
2023-05-12T02:06:53.098Z,4.22
2023-05-12T02:09:23.084Z,4.85
2023-05-12T02:11:55.606Z,5.30
2023-05-12T02:14:25.330Z,4.35
2023-05-12T02:16:55.828Z,4.10
2023-05-12T02:19:25.603Z,4.72
2023-05-12T02:21:55.476Z,4.95
2023-05-12T02:24:25.224Z,4.15
2023-05-12T02:26:57.829Z,4.25
2023-05-12T02:29:27.766Z,3.70
2023-05-12T02:31:57.527Z,3.88
2023-05-12T02:34:27.509Z,4.07
2023-05-12T02:36:57.701Z,4.85
2023-05-12T02:39:27.428Z,4.65
2023-05-12T02:41:59.960Z,4.68
2023-05-12T02:44:29.689Z,4.00
2023-05-12T02:46:59.711Z,4.75
2023-05-12T02:49:29.794Z,4.63
2023-05-12T02:51:59.504Z,4.85
2023-05-12T02:54:29.483Z,4.43
2023-05-12T02:57:02.081Z,3.80
2023-05-12T02:59:31.974Z,5.07
2023-05-12T03:02:02.045Z,5.65
2023-05-12T03:04:33.515Z,5.00
2023-05-12T03:07:03.391Z,5.00
2023-05-12T03:09:33.097Z,6.00
2023-05-12T03:12:05.645Z,7.18
2023-05-12T03:14:35.595Z,6.57
2023-05-12T03:17:05.634Z,6.60
2023-05-12T03:19:35.393Z,6.18
2023-05-12T03:22:07.471Z,5.95
2023-05-12T03:24:37.372Z,5.85
2023-05-12T03:27:09.784Z,6.05
2023-05-12T03:29:39.546Z,5.75
2023-05-12T03:32:09.545Z,6.15
2023-05-12T03:34:39.498Z,6.22
2023-05-12T03:37:09.462Z,5.57
2023-05-12T03:39:39.251Z,5.88
2023-05-12T03:42:12.528Z,6.20
2023-05-12T03:44:42.854Z,6.30
2023-05-12T03:47:12.730Z,5.00
2023-05-12T03:49:42.814Z,5.43
2023-05-12T03:52:12.535Z,5.65
2023-05-12T03:54:42.505Z,5.95
2023-05-12T03:57:15.016Z,5.55
2023-05-12T03:59:44.912Z,5.65
2023-05-12T04:02:14.789Z,6.28
2023-05-12T04:04:44.875Z,5.85
2023-05-12T04:07:14.567Z,5.93
2023-05-12T04:09:44.468Z,6.35
2023-05-12T04:12:16.767Z,6.22
2023-05-12T04:14:46.747Z,5.47
2023-05-12T04:17:18.829Z,5.78
2023-05-12T04:19:49.057Z,5.43
2023-05-12T04:22:18.772Z,5.05
2023-05-12T04:24:48.486Z,5.70
2023-05-12T04:27:20.832Z,5.38
2023-05-12T04:29:50.857Z,4.47
2023-05-12T04:32:20.608Z,5.25
2023-05-12T04:34:52.057Z,6.40
2023-05-12T04:37:22.724Z,5.28
2023-05-12T04:39:52.729Z,5.38
2023-05-12T04:42:25.055Z,5.43
2023-05-12T04:44:54.809Z,6.45
2023-05-12T04:47:24.740Z,6.60
2023-05-12T04:49:54.509Z,5.82
2023-05-12T04:52:25.384Z,5.97
2023-05-12T04:54:55.312Z,7.22
2023-05-12T04:57:27.950Z,6.55
2023-05-12T04:59:59.734Z,6.97
2023-05-12T05:02:30.510Z,6.63
2023-05-12T05:05:00.263Z,7.55
2023-05-12T05:07:30.077Z,8.30
2023-05-12T05:09:59.786Z,12.73
2023-05-12T05:12:32.145Z,12.05
2023-05-12T05:15:02.030Z,8.00
2023-05-12T05:17:31.924Z,7.97
2023-05-12T05:20:07.236Z,76.95
2023-05-12T05:22:41.431Z,59.92
2023-05-12T05:25:11.670Z,16.60
2023-05-12T05:27:44.187Z,9.88
2023-05-12T05:30:14.043Z,16.70
2023-05-12T05:32:44.107Z,16.65
2023-05-12T05:35:14.101Z,16.83
2023-05-12T05:37:44.054Z,10.63
2023-05-12T05:40:14.501Z,8.18
2023-05-12T05:42:46.971Z,6.57
2023-05-12T05:45:16.909Z,6.88
2023-05-12T05:47:46.933Z,6.90
2023-05-12T05:50:16.919Z,6.63
2023-05-12T05:52:46.638Z,7.65
2023-05-12T05:55:16.696Z,8.27
2023-05-12T05:57:49.023Z,7.80
2023-05-12T06:00:19.226Z,6.85
2023-05-12T06:02:49.072Z,8.40
2023-05-12T06:05:19.249Z,7.45
2023-05-12T06:07:49.316Z,7.20
2023-05-12T06:10:19.259Z,7.07
2023-05-12T06:12:54.781Z,7.05
2023-05-12T06:15:24.520Z,7.22
2023-05-12T06:17:54.395Z,6.32
2023-05-12T06:20:25.307Z,7.13
2023-05-12T06:22:55.090Z,6.60
2023-05-12T06:25:24.827Z,7.10
2023-05-12T06:27:57.380Z,6.65
2023-05-12T06:30:27.138Z,7.28
2023-05-12T06:32:57.169Z,7.07
2023-05-12T06:35:27.115Z,6.70
2023-05-12T06:37:57.243Z,7.88
2023-05-12T06:40:27.060Z,7.43
2023-05-12T06:42:59.589Z,7.18
2023-05-12T06:45:29.722Z,7.80
2023-05-12T06:48:00.216Z,8.18
2023-05-12T06:50:30.589Z,8.98
2023-05-12T06:53:00.273Z,8.18
2023-05-12T06:55:30.045Z,7.97
2023-05-12T06:58:02.598Z,7.68
2023-05-12T07:00:32.316Z,7.57
2023-05-12T07:03:02.294Z,7.25
2023-05-12T07:05:32.122Z,7.57
2023-05-12T07:08:04.946Z,7.88
2023-05-12T07:10:35.788Z,7.00
2023-05-12T07:13:08.125Z,7.97
2023-05-12T07:15:37.879Z,7.10
2023-05-12T07:18:07.823Z,7.05
2023-05-12T07:20:38.394Z,7.78
2023-05-12T07:23:08.196Z,6.82
2023-05-12T07:25:38.108Z,7.38
2023-05-12T07:28:11.596Z,7.78
2023-05-12T07:30:41.780Z,7.22
2023-05-12T07:33:11.799Z,6.80
2023-05-12T07:35:41.558Z,6.30
2023-05-12T07:38:11.674Z,6.55
2023-05-12T07:40:41.407Z,6.88
2023-05-12T07:43:13.694Z,7.43
2023-05-12T07:45:43.621Z,6.63
2023-05-12T07:48:13.611Z,7.10
2023-05-12T07:50:43.929Z,7.05
2023-05-12T07:53:13.702Z,6.80
2023-05-12T07:55:44.452Z,6.88
2023-05-12T07:58:16.746Z,6.85
2023-05-12T08:00:46.685Z,6.68
2023-05-12T08:03:16.556Z,7.43
2023-05-12T08:05:46.644Z,6.95
2023-05-12T08:08:16.893Z,7.32
2023-05-12T08:10:47.115Z,6.90
2023-05-12T08:13:19.703Z,6.60
2023-05-12T08:15:49.617Z,6.97
2023-05-12T08:18:19.359Z,6.63
2023-05-12T08:20:49.677Z,6.65
2023-05-12T08:23:19.825Z,7.75
2023-05-12T08:25:49.781Z,7.80
2023-05-12T08:28:22.168Z,7.28
2023-05-12T08:30:52.025Z,7.15
2023-05-12T08:33:22.087Z,7.57
2023-05-12T08:35:52.109Z,7.38
2023-05-12T08:38:22.212Z,7.53
2023-05-12T08:40:57.280Z,7.30
2023-05-12T08:43:32.417Z,7.03
2023-05-12T08:46:02.854Z,7.55
2023-05-12T08:48:33.476Z,7.18
2023-05-12T08:51:03.941Z,7.82
2023-05-12T08:53:35.940Z,8.23
2023-05-12T08:58:42.620Z,7.38
2023-05-12T09:01:15.111Z,7.18
2023-05-12T09:03:45.427Z,7.13
2023-05-12T09:06:16.128Z,6.68
2023-05-12T09:08:46.714Z,5.47
2023-05-12T09:11:16.622Z,6.95
2023-05-12T09:13:52.329Z,4.90
2023-05-12T09:16:25.390Z,5.13
2023-05-12T09:18:56.747Z,4.63
2023-05-12T09:21:27.271Z,5.32
2023-05-12T09:23:58.352Z,4.38
2023-05-12T09:26:29.106Z,4.35
2023-05-12T09:29:12.083Z,5.65
2023-05-12T09:31:52.473Z,5.63
2023-05-12T09:34:22.674Z,4.75
2023-05-12T09:36:58.252Z,4.85
2023-05-12T09:39:29.158Z,5.28
2023-05-12T09:41:58.971Z,4.93
2023-05-12T09:44:31.599Z,4.70
2023-05-12T09:47:08.548Z,4.32
2023-05-12T09:49:38.537Z,4.45
2023-05-12T09:52:08.923Z,4.40
2023-05-12T09:54:42.500Z,3.90
2023-05-12T09:57:13.831Z,3.55
2023-05-12T09:59:47.751Z,3.63
2023-05-12T10:02:18.500Z,3.60
2023-05-12T10:04:51.067Z,3.58
2023-05-12T10:07:26.582Z,3.72
2023-05-12T10:09:58.717Z,3.70
2023-05-12T10:12:28.512Z,3.53
2023-05-12T10:15:01.109Z,4.50
2023-05-12T10:17:30.991Z,4.10
2023-05-12T10:20:01.298Z,3.95
2023-05-12T10:22:31.812Z,3.95
2023-05-12T10:25:01.656Z,3.45
2023-05-12T10:27:32.165Z,3.38
2023-05-12T10:30:05.474Z,4.10
2023-05-12T10:32:35.558Z,3.60
2023-05-12T10:35:12.712Z,3.78
2023-05-12T10:37:43.045Z,3.40
2023-05-12T10:40:13.595Z,3.85
2023-05-12T10:42:44.363Z,3.00
2023-05-12T10:45:20.928Z,3.65
2023-05-12T10:47:51.067Z,3.72
2023-05-12T10:50:29.550Z,3.38
2023-05-12T10:52:59.773Z,3.67
2023-05-12T10:55:33.764Z,3.55
2023-05-12T10:58:07.807Z,3.95
2023-05-12T11:00:49.271Z,3.80
2023-05-12T11:03:20.524Z,3.50
2023-05-12T11:06:01.299Z,3.58
2023-05-12T11:08:32.354Z,3.60
2023-05-12T11:11:03.203Z,3.42
2023-05-12T11:13:33.104Z,3.60
2023-05-12T11:16:05.776Z,2.88
2023-05-12T11:18:35.564Z,3.30
2023-05-12T11:21:12.210Z,3.00
2023-05-12T11:23:42.352Z,2.90
2023-05-12T11:26:19.650Z,3.08
2023-05-12T11:28:49.394Z,3.38
2023-05-12T11:31:23.847Z,3.08
2023-05-12T11:34:04.587Z,3.33
2023-05-12T11:36:42.426Z,2.97
2023-05-12T11:39:16.184Z,3.10
2023-05-12T11:41:46.444Z,3.33
2023-05-12T11:44:16.823Z,3.05
2023-05-12T11:46:59.624Z,3.58
2023-05-12T11:49:30.077Z,3.25
2023-05-12T11:52:00.515Z,2.47
2023-05-12T11:54:31.387Z,3.35
2023-05-12T11:57:01.486Z,3.20
2023-05-12T11:59:32.918Z,3.20
2023-05-12T12:02:06.675Z,3.08
2023-05-12T12:04:37.181Z,3.50
2023-05-12T12:07:07.259Z,3.78
2023-05-12T12:09:37.649Z,3.50
2023-05-12T12:12:08.568Z,3.20
2023-05-12T12:14:41.726Z,3.08
2023-05-12T12:17:14.252Z,3.38
2023-05-12T12:19:43.948Z,3.03
2023-05-12T12:22:13.676Z,2.85
2023-05-12T12:24:43.656Z,2.85
2023-05-12T12:27:13.351Z,2.67
2023-05-12T12:29:43.250Z,3.72
2023-05-12T12:32:15.552Z,3.70
2023-05-12T12:34:45.244Z,3.35
2023-05-12T12:37:15.105Z,3.40
2023-05-12T12:39:44.832Z,3.05
2023-05-12T12:42:15.766Z,3.35
2023-05-12T12:44:48.012Z,3.30
2023-05-12T12:47:20.423Z,2.93
2023-05-12T12:49:50.193Z,3.25
2023-05-12T12:52:19.862Z,3.22
2023-05-12T12:54:49.798Z,2.83
2023-05-12T12:57:21.155Z,3.08
2023-05-12T12:59:50.942Z,3.08
2023-05-12T13:02:23.772Z,3.50
2023-05-12T13:04:53.891Z,2.95
2023-05-12T13:07:23.992Z,2.90
2023-05-12T13:09:53.715Z,2.95
2023-05-12T13:12:23.677Z,3.10
2023-05-12T13:14:53.399Z,3.35
2023-05-12T13:17:25.843Z,2.95
2023-05-12T13:19:55.707Z,2.88
2023-05-12T13:22:27.614Z,2.90
2023-05-12T13:24:57.606Z,2.95
2023-05-12T13:27:27.373Z,2.88
2023-05-12T13:29:57.101Z,2.53
2023-05-12T13:32:29.626Z,2.50
2023-05-12T13:34:59.558Z,3.10
2023-05-12T13:37:29.597Z,2.47
2023-05-12T13:39:59.291Z,2.78
2023-05-12T13:42:29.063Z,2.53
2023-05-12T13:44:58.751Z,2.35
2023-05-12T13:47:31.079Z,2.78
2023-05-12T13:50:01.073Z,2.67
2023-05-12T13:52:30.831Z,2.40
2023-05-12T13:55:00.971Z,3.25
2023-05-12T13:57:30.962Z,3.10
2023-05-12T14:00:00.999Z,2.80
2023-05-12T14:02:34.616Z,3.03
2023-05-12T14:05:04.699Z,2.80
2023-05-12T14:07:34.448Z,2.63
2023-05-12T14:10:04.218Z,2.90
2023-05-12T14:12:33.972Z,3.33
2023-05-12T14:15:19.911Z,3.20
2023-05-12T14:17:56.122Z,3.38
2023-05-12T14:20:26.094Z,2.70
2023-05-12T14:22:55.875Z,3.00
2023-05-12T14:25:25.669Z,3.58
2023-05-12T14:27:55.900Z,3.35
2023-05-12T14:30:25.933Z,2.88
2023-05-12T14:32:58.398Z,3.30
2023-05-12T14:35:29.145Z,2.80
2023-05-12T14:37:59.475Z,3.28
2023-05-12T14:40:29.478Z,2.97
2023-05-12T14:43:00.298Z,3.20
2023-05-12T14:45:31.703Z,3.40
2023-05-12T14:48:07.482Z,3.00
2023-05-12T14:50:38.141Z,3.42
2023-05-12T14:53:08.577Z,3.17
2023-05-12T14:55:38.326Z,2.97
2023-05-12T14:58:08.172Z,3.30
2023-05-12T15:00:37.850Z,2.92
2023-05-12T15:03:10.312Z,3.40
2023-05-12T15:05:56.785Z,3.40
2023-05-12T15:08:29.931Z,3.90
2023-05-12T15:10:59.663Z,3.53
2023-05-12T15:13:29.393Z,3.00
2023-05-12T15:16:03.129Z,3.30
2023-05-12T15:18:35.570Z,3.42
2023-05-12T15:21:05.400Z,3.47
2023-05-12T15:23:35.352Z,2.53
2023-05-12T15:26:26.975Z,3.17
2023-05-12T15:28:58.056Z,3.15
2023-05-12T15:31:30.907Z,3.40
2023-05-12T15:34:03.268Z,3.47
2023-05-12T15:36:33.423Z,3.05
2023-05-12T15:39:03.554Z,2.88
2023-05-12T15:41:33.502Z,3.50
2023-05-12T15:44:03.248Z,3.00
2023-05-12T15:46:33.181Z,3.25
2023-05-12T15:49:05.811Z,3.50
2023-05-12T15:51:36.648Z,3.50
2023-05-12T15:54:09.133Z,3.38
2023-05-12T15:56:39.424Z,3.08
2023-05-12T15:59:09.861Z,3.53
2023-05-12T16:01:39.615Z,3.17
2023-05-12T16:04:12.284Z,3.33
2023-05-12T16:06:42.092Z,3.70
2023-05-12T16:09:12.222Z,3.90
2023-05-12T16:11:42.259Z,3.83
2023-05-12T16:14:12.120Z,3.38
2023-05-12T16:16:43.891Z,3.45
2023-05-12T16:19:16.504Z,3.83
2023-05-12T16:21:46.436Z,3.28
2023-05-12T16:24:16.178Z,3.30
2023-05-12T16:26:46.059Z,3.63
2023-05-12T16:29:16.629Z,3.08
2023-05-12T16:31:46.376Z,3.60
2023-05-12T16:34:21.817Z,3.97
2023-05-12T16:36:54.680Z,3.78
2023-05-12T16:39:24.665Z,3.33
2023-05-12T16:41:54.430Z,3.58
2023-05-12T16:44:24.129Z,3.38
2023-05-12T16:46:53.837Z,3.25
2023-05-12T16:49:26.246Z,3.30
2023-05-12T16:51:56.355Z,3.47
2023-05-12T16:54:26.279Z,3.33
2023-05-12T16:56:56.694Z,3.05
2023-05-12T16:59:26.707Z,3.50
2023-05-12T17:01:56.674Z,3.30
2023-05-12T17:04:29.304Z,3.72
2023-05-12T17:06:59.315Z,3.35
2023-05-12T17:09:29.018Z,3.33
2023-05-12T17:11:59.119Z,3.58
2023-05-12T17:14:28.816Z,3.13
2023-05-12T17:16:58.611Z,3.78
2023-05-12T17:19:31.044Z,3.35
2023-05-12T17:22:00.808Z,3.20
2023-05-12T17:24:31.093Z,3.78
2023-05-12T17:27:00.788Z,3.10
2023-05-12T17:29:30.712Z,3.45
2023-05-12T17:32:02.172Z,4.05
2023-05-12T17:34:34.768Z,3.53
2023-05-12T17:37:06.195Z,3.45
2023-05-12T17:39:38.444Z,3.50
2023-05-12T17:42:09.380Z,3.50
2023-05-12T17:44:39.174Z,3.30
2023-05-12T17:47:09.177Z,3.65
2023-05-12T17:49:41.482Z,4.03
2023-05-12T17:52:11.400Z,3.70
2023-05-12T17:54:41.360Z,3.67
2023-05-12T17:57:11.099Z,3.70
2023-05-12T17:59:41.055Z,3.90
2023-05-12T18:02:13.413Z,4.45
2023-05-12T18:04:46.467Z,4.22
2023-05-12T18:09:46.106Z,3.70
2023-05-12T18:12:17.960Z,3.95
2023-05-12T18:14:47.808Z,4.00
2023-05-12T18:17:17.904Z,3.65
2023-05-12T18:19:50.292Z,3.72
2023-05-12T18:22:19.997Z,4.55
2023-05-12T18:24:50.939Z,3.40
2023-05-12T18:27:20.863Z,4.30
2023-05-12T18:29:50.604Z,3.88
2023-05-12T18:32:20.278Z,4.22
2023-05-12T18:34:52.573Z,4.22
2023-05-12T18:37:22.475Z,4.40
2023-05-12T18:39:53.576Z,3.92
2023-05-12T18:42:23.318Z,3.65
2023-05-12T18:44:54.283Z,3.78
2023-05-12T18:47:23.984Z,4.55
2023-05-12T18:49:56.478Z,4.32
2023-05-12T18:52:26.171Z,3.00
2023-05-12T18:54:56.105Z,4.38
2023-05-12T18:57:25.823Z,3.90
2023-05-12T18:59:56.135Z,3.72
2023-05-12T19:02:25.868Z,4.50
2023-05-12T19:04:58.251Z,4.00
2023-05-12T19:07:27.947Z,4.18
2023-05-12T19:09:57.664Z,3.90
2023-05-12T19:12:27.723Z,4.55
2023-05-12T19:14:57.792Z,3.78
2023-05-12T19:17:28.652Z,4.60
2023-05-12T19:20:01.170Z,4.45
2023-05-12T19:22:30.875Z,4.00
2023-05-12T19:25:01.010Z,3.90
2023-05-12T19:27:30.775Z,3.95
2023-05-12T19:30:02.465Z,4.78
2023-05-12T19:32:34.385Z,3.83
2023-05-12T19:35:07.713Z,4.05
2023-05-12T19:37:37.415Z,3.83
2023-05-12T19:40:07.551Z,4.35
2023-05-12T19:42:38.166Z,5.10
2023-05-12T19:45:08.630Z,4.43
2023-05-12T19:47:38.624Z,5.05
2023-05-12T19:50:11.793Z,5.18
2023-05-12T19:55:11.706Z,4.35
2023-05-12T19:57:42.474Z,4.63
2023-05-12T20:00:13.119Z,5.47
2023-05-12T20:02:43.269Z,4.72
2023-05-12T20:05:15.859Z,5.10
2023-05-12T20:07:46.317Z,5.40
2023-05-12T20:10:16.017Z,5.28
2023-05-12T20:12:46.055Z,6.13
2023-05-12T20:15:15.841Z,5.93
2023-05-12T20:17:45.813Z,5.65
2023-05-12T20:20:18.469Z,5.80
2023-05-12T20:22:48.392Z,5.68
2023-05-12T20:25:20.027Z,6.00
2023-05-12T20:27:50.376Z,5.87
2023-05-12T20:30:20.134Z,5.40
2023-05-12T20:32:51.483Z,5.97
2023-05-12T20:35:24.049Z,5.90
2023-05-12T20:37:53.826Z,5.25
2023-05-12T20:40:23.684Z,4.97
2023-05-12T20:42:53.443Z,4.55
2023-05-12T20:45:23.447Z,4.60
2023-05-12T20:47:53.743Z,5.80
2023-05-12T20:50:26.741Z,5.50
2023-05-12T20:52:56.431Z,4.90
2023-05-12T20:55:26.680Z,5.10
2023-05-12T20:57:56.426Z,4.78
2023-05-12T21:00:26.227Z,4.70
2023-05-12T21:02:56.414Z,4.72
2023-05-12T21:05:28.800Z,4.93
2023-05-12T21:07:58.660Z,5.47
2023-05-12T21:10:28.395Z,5.68
2023-05-12T21:12:58.438Z,4.38
2023-05-12T21:15:28.143Z,5.38
2023-05-12T21:17:57.868Z,4.40
2023-05-12T21:20:30.233Z,5.13
2023-05-12T21:22:59.931Z,5.50
2023-05-12T21:25:29.827Z,4.03
2023-05-12T21:27:59.522Z,5.72
2023-05-12T21:30:29.428Z,5.55
2023-05-12T21:32:59.466Z,5.30
2023-05-12T21:35:32.051Z,6.25
2023-05-12T21:38:01.996Z,5.40
2023-05-12T21:40:31.992Z,5.50
2023-05-12T21:43:01.795Z,5.88
2023-05-12T21:45:31.679Z,5.50
2023-05-12T21:48:01.445Z,5.50
2023-05-12T21:50:33.757Z,5.32
2023-05-12T21:53:03.617Z,6.03
2023-05-12T21:55:33.317Z,6.07
2023-05-12T21:58:03.249Z,7.55
2023-05-12T22:00:32.935Z,5.50
2023-05-12T22:03:03.000Z,6.07
2023-05-12T22:05:35.605Z,6.38
2023-05-12T22:08:05.686Z,5.72
2023-05-12T22:10:35.408Z,5.63
2023-05-12T22:13:05.436Z,5.20
2023-05-12T22:15:35.332Z,5.65
2023-05-12T22:18:05.569Z,5.45
2023-05-12T22:20:38.084Z,6.22
2023-05-12T22:23:08.203Z,5.82
2023-05-12T22:25:38.342Z,5.85
2023-05-12T22:28:08.062Z,4.90
2023-05-12T22:30:37.757Z,5.63
2023-05-12T22:33:07.486Z,5.63
2023-05-12T22:35:40.042Z,5.72
2023-05-12T22:38:09.741Z,6.05
2023-05-12T22:40:39.661Z,5.82
2023-05-12T22:43:09.771Z,5.93
2023-05-12T22:45:39.671Z,5.82
2023-05-12T22:48:09.389Z,6.45
2023-05-12T22:50:41.924Z,6.47
2023-05-12T22:53:11.918Z,5.95
2023-05-12T22:55:41.839Z,5.65
2023-05-12T22:58:12.312Z,6.43
2023-05-12T23:00:41.987Z,6.72
2023-05-12T23:03:12.101Z,6.50
2023-05-12T23:05:44.586Z,5.90
2023-05-12T23:08:14.337Z,7.28
2023-05-12T23:10:44.026Z,8.27
2023-05-12T23:13:13.961Z,8.15
2023-05-12T23:15:43.667Z,8.43
2023-05-12T23:18:13.613Z,7.40
2023-05-12T23:20:46.206Z,8.38
2023-05-12T23:23:16.484Z,8.75
2023-05-12T23:25:46.190Z,8.90
2023-05-12T23:28:16.285Z,8.00
2023-05-12T23:30:46.114Z,7.72
2023-05-12T23:33:16.156Z,8.90
2023-05-12T23:35:48.467Z,7.30
2023-05-12T23:38:18.528Z,7.30
2023-05-12T23:40:48.322Z,7.38
2023-05-12T23:43:18.094Z,7.90
2023-05-12T23:45:47.964Z,7.05
2023-05-12T23:48:17.815Z,7.70
2023-05-12T23:50:50.320Z,7.68
2023-05-12T23:53:20.071Z,7.43
2023-05-12T23:55:50.697Z,7.57
2023-05-12T23:58:20.505Z,7.38
